Time;durP1;ratioP1;P1;durP2;ratioP2;P2;SDS_P1;SDS_P2;PMS_P1;PMS_P2;Temp;Humidity;BMP_temperature;BMP_pressure;BME280_temperature;BME280_humidity;BME280_pressure;Samples;Min_cycle;Max_cycle;Signal;HPM_P1;HPM_P2
2022/03/31 00:00:32;;;;;;;;;;;24.50;45.30;;;;;;5100200;28;975;-34
2022/03/31 00:02:59;;;;;;;;;;;24.50;45.40;;;;;;5100090;28;998;-35
2022/03/31 00:05:26;;;;;;;;;;;24.50;45.30;;;;;;5099244;28;1894;-33
2022/03/31 00:07:54;;;;;;;;;;;24.50;45.30;;;;;;5099338;28;1002;-35
2022/03/31 00:10:23;;;;;;;;;;;24.50;45.30;;;;;;5099319;28;1000;-34
2022/03/31 00:12:50;;;;;;;;;;;24.50;45.40;;;;;;5099854;28;1093;-34
2022/03/31 00:15:17;;;;;;;;;;;24.50;45.40;;;;;;5099612;28;984;-34
2022/03/31 00:17:44;;;;;;;;;;;24.50;45.40;;;;;;5100013;28;1007;-35
2022/03/31 00:20:11;;;;;;;;;;;24.50;45.30;;;;;;5099281;28;1032;-35
2022/03/31 00:22:39;;;;;;;;;;;24.50;45.30;;;;;;5099322;28;1526;-34
2022/03/31 00:25:06;;;;;;;;;;;24.50;45.30;;;;;;5099079;28;843;-34
2022/03/31 00:27:34;;;;;;;;;;;24.50;45.30;;;;;;5098146;28;1978;-35
2022/03/31 00:30:01;;;;;;;;;;;24.50;45.30;;;;;;5099218;28;1000;-34
2022/03/31 00:32:28;;;;;;;;;;;24.50;45.30;;;;;;5099220;28;992;-36
2022/03/31 00:34:55;;;;;;;;;;;24.50;45.30;;;;;;5098937;28;1064;-35
2022/03/31 00:37:21;;;;;;;;;;;24.50;45.30;;;;;;5099190;28;969;-34
2022/03/31 00:39:49;;;;;;;;;;;24.50;45.30;;;;;;5099361;28;936;-35
2022/03/31 00:42:16;;;;;;;;;;;24.50;45.30;;;;;;5099004;28;996;-35
2022/03/31 00:44:44;;;;;;;;;;;24.50;45.30;;;;;;5098877;28;992;-34
2022/03/31 00:47:12;;;;;;;;;;;24.50;45.30;;;;;;5099350;28;1909;-34
2022/03/31 00:49:39;;;;;;;;;;;24.50;45.30;;;;;;5098808;28;986;-33
2022/03/31 00:52:06;;;;;;;;;;;24.50;45.40;;;;;;5098363;28;981;-34
2022/03/31 00:54:34;;;;;;;;;;;24.40;45.30;;;;;;5098484;28;944;-35
2022/03/31 00:57:02;;;;;;;;;;;24.50;45.40;;;;;;5098833;28;983;-34
2022/03/31 00:59:29;;;;;;;;;;;24.50;45.40;;;;;;5098032;28;988;-35
2022/03/31 01:01:58;;;;;;;;;;;24.50;45.40;;;;;;5097772;28;1003;-35
2022/03/31 01:04:27;;;;;;;;;;;24.50;45.50;;;;;;5097006;28;972;-35
2022/03/31 01:06:53;;;;;;;;;;;24.50;45.40;;;;;;5096556;28;1890;-35
2022/03/31 01:09:20;;;;;;;;;;;24.40;45.30;;;;;;5096975;28;981;-36
2022/03/31 01:11:47;;;;;;;;;;;24.40;45.40;;;;;;5097441;28;929;-34
2022/03/31 01:14:14;;;;;;;;;;;24.50;45.40;;;;;;5098205;28;1046;-35
2022/03/31 01:16:42;;;;;;;;;;;24.40;45.40;;;;;;5098181;28;1055;-35
2022/03/31 01:19:11;;;;;;;;;;;24.50;45.50;;;;;;5097901;28;933;-35
2022/03/31 01:21:38;;;;;;;;;;;24.50;45.40;;;;;;5098437;28;1008;-35
2022/03/31 01:24:08;;;;;;;;;;;24.50;45.30;;;;;;5098434;28;977;-35
2022/03/31 01:26:35;;;;;;;;;;;24.50;45.30;;;;;;5098274;28;1968;-36
2022/03/31 01:29:02;;;;;;;;;;;24.50;45.30;;;;;;5098225;28;981;-35
2022/03/31 01:31:30;;;;;;;;;;;24.50;45.60;;;;;;5097846;28;992;-34
2022/03/31 01:33:57;;;;;;;;;;;24.40;45.40;;;;;;5098001;28;999;-35
2022/03/31 01:36:24;;;;;;;;;;;24.40;45.30;;;;;;5098123;28;1000;-35
2022/03/31 01:38:50;;;;;;;;;;;24.40;45.40;;;;;;5098515;28;982;-34
2022/03/31 01:41:18;;;;;;;;;;;24.40;45.40;;;;;;5098338;28;940;-35
2022/03/31 01:43:46;;;;;;;;;;;24.40;45.40;;;;;;5098191;28;1125;-34
2022/03/31 01:46:13;;;;;;;;;;;24.40;45.50;;;;;;5096958;28;1909;-35
2022/03/31 01:48:40;;;;;;;;;;;24.40;45.50;;;;;;5098197;28;941;-34
2022/03/31 01:51:07;;;;;;;;;;;24.40;45.50;;;;;;5097635;28;964;-35
2022/03/31 01:53:35;;;;;;;;;;;24.40;45.50;;;;;;5097678;28;948;-34
2022/03/31 01:56:01;;;;;;;;;;;24.40;45.60;;;;;;5097732;28;936;-35
2022/03/31 01:58:29;;;;;;;;;;;24.40;45.60;;;;;;5098322;28;1040;-35
2022/03/31 02:00:57;;;;;;;;;;;24.40;45.60;;;;;;5097911;28;996;-35
2022/03/31 02:03:24;;;;;;;;;;;24.40;45.60;;;;;;5098744;28;960;-34
2022/03/31 02:05:51;;;;;;;;;;;24.40;45.60;;;;;;5096617;28;1024;-34
2022/03/31 02:08:18;;;;;;;;;;;24.30;45.50;;;;;;5097670;28;1016;-34
2022/03/31 02:10:45;;;;;;;;;;;24.40;45.60;;;;;;5097611;28;1003;-34
2022/03/31 02:13:13;;;;;;;;;;;24.40;45.60;;;;;;5097887;28;1090;-34
2022/03/31 02:15:41;;;;;;;;;;;24.40;45.50;;;;;;5097694;28;1023;-35
2022/03/31 02:18:08;;;;;;;;;;;24.40;45.60;;;;;;5097560;28;992;-35
2022/03/31 02:20:35;;;;;;;;;;;24.30;45.50;;;;;;5097683;28;996;-34
2022/03/31 02:23:01;;;;;;;;;;;24.40;45.50;;;;;;5098029;28;955;-34
2022/03/31 02:25:29;;;;;;;;;;;24.40;45.50;;;;;;5097024;28;988;-35
2022/03/31 02:27:56;;;;;;;;;;;24.30;45.40;;;;;;5097278;28;1902;-35
2022/03/31 02:30:23;;;;;;;;;;;24.40;45.50;;;;;;5097719;28;1023;-36
2022/03/31 02:32:52;;;;;;;;;;;24.40;45.40;;;;;;5097685;28;1060;-37
2022/03/31 02:35:18;;;;;;;;;;;24.40;45.50;;;;;;5097466;28;1007;-36
2022/03/31 02:38:14;;;;;;;;;;;24.40;45.50;;;;;;5098468;28;989;-36
2022/03/31 02:40:41;;;;;;;;;;;24.40;45.60;;;;;;5097219;28;940;-35
2022/03/31 02:43:08;;;;;;;;;;;24.30;45.50;;;;;;5097347;28;1118;-35
2022/03/31 02:45:35;;;;;;;;;;;24.30;45.50;;;;;;5097365;28;1027;-34
2022/03/31 02:48:03;;;;;;;;;;;24.30;45.50;;;;;;5097283;28;1984;-34
2022/03/31 02:50:30;;;;;;;;;;;24.30;45.50;;;;;;5098658;28;956;-34
2022/03/31 02:55:41;;;;;;;;;;;24.30;45.60;;;;;;5100900;28;608;-35
2022/03/31 02:58:08;;;;;;;;;;;24.30;45.60;;;;;;5101164;28;979;-34
2022/03/31 03:00:36;;;;;;;;;;;24.30;45.60;;;;;;5100854;28;996;-35
2022/03/31 03:03:04;;;;;;;;;;;24.30;45.50;;;;;;5101087;28;1781;-35
2022/03/31 03:05:31;;;;;;;;;;;24.30;45.60;;;;;;5100727;28;933;-34
2022/03/31 03:07:58;;;;;;;;;;;24.30;45.60;;;;;;5100490;28;1909;-35
2022/03/31 03:10:25;;;;;;;;;;;24.30;45.50;;;;;;5100832;28;937;-35
2022/03/31 03:12:51;;;;;;;;;;;24.30;45.50;;;;;;5100507;28;975;-34
2022/03/31 03:15:19;;;;;;;;;;;24.30;45.50;;;;;;5099927;28;984;-35
2022/03/31 03:17:46;;;;;;;;;;;24.30;45.60;;;;;;5101119;28;980;-35
2022/03/31 03:20:15;;;;;;;;;;;24.30;45.50;;;;;;5100342;28;935;-35
2022/03/31 03:22:43;;;;;;;;;;;24.30;45.50;;;;;;5100800;28;988;-34
2022/03/31 03:25:10;;;;;;;;;;;24.30;45.50;;;;;;5100909;28;939;-35
2022/03/31 03:27:37;;;;;;;;;;;24.30;45.50;;;;;;5100056;28;1981;-34
2022/03/31 03:30:04;;;;;;;;;;;24.30;45.50;;;;;;5100278;28;972;-34
2022/03/31 03:32:30;;;;;;;;;;;24.30;45.50;;;;;;5100206;28;1001;-34
2022/03/31 03:34:57;;;;;;;;;;;24.30;45.50;;;;;;5100372;28;1008;-34
2022/03/31 03:37:25;;;;;;;;;;;24.30;45.50;;;;;;5100869;28;1013;-35
2022/03/31 03:39:52;;;;;;;;;;;24.30;45.50;;;;;;5100324;28;968;-35
2022/03/31 03:42:19;;;;;;;;;;;24.30;45.50;;;;;;5099985;28;1125;-35
2022/03/31 03:44:46;;;;;;;;;;;24.30;45.50;;;;;;5099608;28;1016;-34
2022/03/31 03:47:13;;;;;;;;;;;24.30;45.50;;;;;;5099286;28;1971;-34
2022/03/31 03:49:40;;;;;;;;;;;24.30;45.50;;;;;;5099834;28;912;-36
2022/03/31 03:52:07;;;;;;;;;;;24.30;45.40;;;;;;5099085;28;1063;-36
2022/03/31 03:54:35;;;;;;;;;;;24.30;45.50;;;;;;5099040;28;1008;-36
2022/03/31 03:57:02;;;;;;;;;;;24.30;45.50;;;;;;5099231;28;981;-37
2022/03/31 03:59:28;;;;;;;;;;;24.30;45.40;;;;;;5098513;28;985;-36
2022/03/31 04:01:55;;;;;;;;;;;24.30;45.50;;;;;;5099185;28;981;-39
2022/03/31 04:04:22;;;;;;;;;;;24.30;45.50;;;;;;5099361;28;1040;-36
2022/03/31 04:06:49;;;;;;;;;;;24.30;45.50;;;;;;5098417;28;1905;-36
2022/03/31 04:09:15;;;;;;;;;;;24.20;45.50;;;;;;5098991;28;969;-37
2022/03/31 04:11:43;;;;;;;;;;;24.20;45.50;;;;;;5098922;28;1031;-38
2022/03/31 04:14:10;;;;;;;;;;;24.30;45.50;;;;;;5099147;28;976;-38
2022/03/31 04:16:37;;;;;;;;;;;24.30;45.40;;;;;;5098744;28;1001;-37
2022/03/31 04:19:05;;;;;;;;;;;24.30;45.30;;;;;;5099309;28;1019;-36
2022/03/31 04:21:31;;;;;;;;;;;24.30;45.60;;;;;;5098585;28;952;-35
2022/03/31 04:23:58;;;;;;;;;;;24.30;45.40;;;;;;5098778;28;1008;-37
2022/03/31 04:26:24;;;;;;;;;;;24.30;45.50;;;;;;5098275;28;940;-37
2022/03/31 04:28:52;;;;;;;;;;;24.30;45.40;;;;;;5098431;28;1988;-36
2022/03/31 04:31:19;;;;;;;;;;;24.20;45.30;;;;;;5098203;28;932;-38
2022/03/31 04:33:46;;;;;;;;;;;24.30;45.40;;;;;;5098565;28;947;-36
2022/03/31 04:36:12;;;;;;;;;;;24.30;45.40;;;;;;5097887;28;1002;-37
2022/03/31 04:38:39;;;;;;;;;;;24.30;45.40;;;;;;5098312;28;964;-37
2022/03/31 04:41:06;;;;;;;;;;;24.30;45.40;;;;;;5097759;28;960;-37
2022/03/31 04:43:33;;;;;;;;;;;24.30;45.30;;;;;;5097194;28;1025;-39
2022/03/31 04:46:01;;;;;;;;;;;24.30;45.30;;;;;;5097733;28;988;-36
2022/03/31 04:48:29;;;;;;;;;;;24.20;45.30;;;;;;5097830;28;1905;-38
2022/03/31 04:50:55;;;;;;;;;;;24.20;45.30;;;;;;5096576;28;928;-36
2022/03/31 04:53:22;;;;;;;;;;;24.20;45.40;;;;;;5095799;28;1119;-37
2022/03/31 04:55:49;;;;;;;;;;;24.20;45.30;;;;;;5095817;28;964;-37
2022/03/31 04:58:15;;;;;;;;;;;24.30;45.40;;;;;;5095670;28;1010;-38
2022/03/31 05:00:42;;;;;;;;;;;24.20;45.20;;;;;;5095541;28;860;-38
2022/03/31 05:03:10;;;;;;;;;;;24.20;45.40;;;;;;5097060;28;1123;-37
2022/03/31 05:05:37;;;;;;;;;;;24.20;45.50;;;;;;5096726;28;943;-37
2022/03/31 05:08:04;;;;;;;;;;;24.20;45.50;;;;;;5095711;28;1902;-38
2022/03/31 05:10:30;;;;;;;;;;;24.20;45.50;;;;;;5096701;28;952;-37
2022/03/31 05:12:57;;;;;;;;;;;24.20;45.50;;;;;;5095248;28;900;-39
2022/03/31 05:15:24;;;;;;;;;;;24.20;45.40;;;;;;5095463;28;996;-38
2022/03/31 05:17:51;;;;;;;;;;;24.20;45.40;;;;;;5096073;28;1100;-40
2022/03/31 05:20:20;;;;;;;;;;;24.20;45.40;;;;;;5095028;28;947;-38
2022/03/31 05:22:47;;;;;;;;;;;24.20;45.40;;;;;;5093577;28;929;-37
2022/03/31 05:25:15;;;;;;;;;;;24.30;45.40;;;;;;5095305;28;1001;-38
2022/03/31 05:27:42;;;;;;;;;;;24.20;45.30;;;;;;5094715;28;2000;-42
2022/03/31 05:30:09;;;;;;;;;;;24.40;45.40;;;;;;5094124;28;939;-42
2022/03/31 05:32:36;;;;;;;;;;;24.50;45.00;;;;;;5094101;28;1004;-44
2022/03/31 05:35:03;;;;;;;;;;;24.50;45.00;;;;;;5095126;28;1063;-43
2022/03/31 05:37:31;;;;;;;;;;;24.50;44.80;;;;;;5094472;28;974;-44
2022/03/31 05:39:58;;;;;;;;;;;24.50;44.70;;;;;;5094430;28;1013;-44
2022/03/31 05:42:25;;;;;;;;;;;24.50;44.70;;;;;;5093997;28;999;-42
2022/03/31 05:44:51;;;;;;;;;;;24.50;44.70;;;;;;5094042;28;868;-42
2022/03/31 05:47:18;;;;;;;;;;;24.60;44.70;;;;;;5094396;28;1906;-45
2022/03/31 05:49:45;;;;;;;;;;;24.60;44.70;;;;;;5095218;28;924;-46
2022/03/31 05:52:12;;;;;;;;;;;24.50;44.70;;;;;;5096131;28;1088;-44
2022/03/31 05:54:40;;;;;;;;;;;24.60;45.00;;;;;;5095902;28;1004;-49
2022/03/31 05:57:06;;;;;;;;;;;24.60;44.90;;;;;;5096525;28;995;-49
2022/03/31 05:59:33;;;;;;;;;;;24.50;45.00;;;;;;5095391;28;932;-47
2022/03/31 06:02:00;;;;;;;;;;;24.50;45.30;;;;;;5095415;28;981;-47
2022/03/31 06:04:27;;;;;;;;;;;24.50;45.50;;;;;;5095185;28;866;-49
2022/03/31 06:06:54;;;;;;;;;;;24.50;45.60;;;;;;5095216;28;995;-48
2022/03/31 06:09:20;;;;;;;;;;;24.50;45.60;;;;;;5093955;28;1984;-45
2022/03/31 06:11:48;;;;;;;;;;;24.60;45.40;;;;;;5094261;28;945;-45
2022/03/31 06:14:15;;;;;;;;;;;24.60;45.30;;;;;;5094319;28;997;-44
2022/03/31 06:16:42;;;;;;;;;;;24.50;45.60;;;;;;5096118;28;973;-44
2022/03/31 06:19:09;;;;;;;;;;;24.60;45.60;;;;;;5095453;28;947;-45
2022/03/31 06:21:36;;;;;;;;;;;24.60;45.40;;;;;;5096204;28;904;-45
2022/03/31 06:24:03;;;;;;;;;;;24.50;45.50;;;;;;5095943;28;1129;-45
2022/03/31 06:26:30;;;;;;;;;;;24.60;45.60;;;;;;5096996;28;1003;-47
2022/03/31 06:28:58;;;;;;;;;;;24.60;45.50;;;;;;5098809;28;1983;-44
2022/03/31 06:31:25;;;;;;;;;;;24.70;45.50;;;;;;5098567;28;980;-45
2022/03/31 06:33:52;;;;;;;;;;;24.70;45.40;;;;;;5098331;28;998;-44
2022/03/31 06:36:19;;;;;;;;;;;24.70;45.20;;;;;;5099298;28;980;-44
2022/03/31 06:38:47;;;;;;;;;;;24.60;45.40;;;;;;5098852;28;928;-44
2022/03/31 06:41:15;;;;;;;;;;;24.70;45.30;;;;;;5098878;28;928;-43
2022/03/31 06:43:44;;;;;;;;;;;24.70;45.30;;;;;;5099474;28;1163;-44
2022/03/31 06:46:13;;;;;;;;;;;24.70;45.30;;;;;;5099606;28;1031;-45
2022/03/31 06:48:41;;;;;;;;;;;24.70;45.30;;;;;;5099508;28;1905;-44
2022/03/31 06:51:09;;;;;;;;;;;24.60;45.20;;;;;;5099213;28;862;-44
2022/03/31 06:53:37;;;;;;;;;;;24.60;45.20;;;;;;5097753;28;901;-44
2022/03/31 06:56:04;;;;;;;;;;;24.60;45.20;;;;;;5098974;28;979;-44
2022/03/31 06:58:30;;;;;;;;;;;24.60;45.20;;;;;;5098289;28;1750;-44
2022/03/31 07:00:57;;;;;;;;;;;24.60;45.20;;;;;;5099026;28;943;-44
2022/03/31 07:03:26;;;;;;;;;;;24.70;45.10;;;;;;5098231;28;842;-45
2022/03/31 07:05:53;;;;;;;;;;;24.60;45.20;;;;;;5098086;28;992;-44
2022/03/31 07:08:19;;;;;;;;;;;24.60;45.10;;;;;;5097067;28;1898;-44
2022/03/31 07:10:46;;;;;;;;;;;24.60;45.30;;;;;;5097399;28;940;-43
2022/03/31 07:13:13;;;;;;;;;;;24.60;45.40;;;;;;5098790;28;1123;-44
2022/03/31 07:15:40;;;;;;;;;;;24.60;45.30;;;;;;5098642;28;952;-44
2022/03/31 07:18:07;;;;;;;;;;;24.60;45.10;;;;;;5096777;28;1019;-44
2022/03/31 07:20:36;;;;;;;;;;;24.60;45.20;;;;;;5097269;28;968;-43
2022/03/31 07:23:03;;;;;;;;;;;24.60;46.30;;;;;;5098220;28;935;-43
2022/03/31 07:25:30;;;;;;;;;;;24.60;45.10;;;;;;5096502;28;952;-44
2022/03/31 07:27:57;;;;;;;;;;;24.70;46.10;;;;;;5097140;28;1906;-44
2022/03/31 07:30:25;;;;;;;;;;;24.70;45.10;;;;;;5097358;28;964;-44
2022/03/31 07:32:52;;;;;;;;;;;24.60;45.20;;;;;;5096872;28;992;-44
2022/03/31 07:35:20;;;;;;;;;;;24.60;45.20;;;;;;5096579;28;1096;-44
2022/03/31 07:37:48;;;;;;;;;;;24.70;45.20;;;;;;5096786;28;1011;-45
2022/03/31 07:40:15;;;;;;;;;;;24.70;45.00;;;;;;5097798;28;947;-44
2022/03/31 07:42:42;;;;;;;;;;;24.60;45.00;;;;;;5096995;28;1107;-44
2022/03/31 07:45:09;;;;;;;;;;;24.60;45.00;;;;;;5096384;28;1778;-44
2022/03/31 07:47:36;;;;;;;;;;;24.60;45.00;;;;;;5098045;28;1042;-44
2022/03/31 07:50:03;;;;;;;;;;;24.60;45.00;;;;;;5097913;28;1902;-44
2022/03/31 07:52:30;;;;;;;;;;;24.60;44.90;;;;;;5098640;28;997;-45
2022/03/31 07:54:58;;;;;;;;;;;24.60;45.00;;;;;;5096763;28;948;-45
2022/03/31 07:57:25;;;;;;;;;;;24.60;45.00;;;;;;5098105;28;973;-44
2022/03/31 07:59:51;;;;;;;;;;;24.60;45.00;;;;;;5096342;28;941;-44
2022/03/31 08:02:18;;;;;;;;;;;24.60;45.00;;;;;;5097213;28;988;-44
2022/03/31 08:04:45;;;;;;;;;;;24.60;44.90;;;;;;5096702;28;985;-44
2022/03/31 08:07:11;;;;;;;;;;;24.60;45.00;;;;;;5095948;28;992;-44
2022/03/31 08:09:38;;;;;;;;;;;24.60;45.10;;;;;;5095964;28;1897;-44
2022/03/31 08:12:07;;;;;;;;;;;24.60;45.20;;;;;;5096908;28;987;-44
2022/03/31 08:14:34;;;;;;;;;;;24.60;45.10;;;;;;5096553;28;1051;-44
2022/03/31 08:17:01;;;;;;;;;;;24.60;45.20;;;;;;5097048;28;1016;-44
2022/03/31 08:19:30;;;;;;;;;;;24.50;45.20;;;;;;5096605;28;933;-44
2022/03/31 08:21:57;;;;;;;;;;;24.50;45.20;;;;;;5097183;28;964;-44
2022/03/31 08:24:24;;;;;;;;;;;24.60;45.20;;;;;;5097442;28;1002;-45
2022/03/31 08:26:51;;;;;;;;;;;24.60;45.00;;;;;;5097090;28;952;-44
2022/03/31 08:29:19;;;;;;;;;;;24.60;45.20;;;;;;5095512;28;1898;-45
2022/03/31 08:31:46;;;;;;;;;;;24.60;45.20;;;;;;5095591;28;973;-44
2022/03/31 08:34:13;;;;;;;;;;;24.60;45.60;;;;;;5097350;28;944;-44
2022/03/31 08:36:40;;;;;;;;;;;24.60;44.90;;;;;;5096536;28;969;-45
2022/03/31 08:39:07;;;;;;;;;;;24.60;44.90;;;;;;5096796;28;1018;-44
2022/03/31 08:41:34;;;;;;;;;;;24.60;44.90;;;;;;5096661;28;1005;-44
2022/03/31 08:44:01;;;;;;;;;;;24.60;44.90;;;;;;5096723;28;1170;-45
2022/03/31 08:46:31;;;;;;;;;;;24.60;45.00;;;;;;5096939;28;1003;-45
2022/03/31 08:48:58;;;;;;;;;;;24.60;45.00;;;;;;5094830;28;1977;-46
2022/03/31 08:51:24;;;;;;;;;;;24.60;44.90;;;;;;5095459;28;927;-44
2022/03/31 08:53:51;;;;;;;;;;;24.60;45.00;;;;;;5096371;28;939;-44
2022/03/31 08:56:18;;;;;;;;;;;24.50;45.00;;;;;;5096041;28;1745;-45
2022/03/31 08:58:45;;;;;;;;;;;24.60;45.00;;;;;;5095493;28;1063;-43
2022/03/31 09:01:12;;;;;;;;;;;24.60;45.00;;;;;;5095165;28;972;-44
2022/03/31 09:03:41;;;;;;;;;;;24.60;45.00;;;;;;5095707;28;708;-44
2022/03/31 09:06:07;;;;;;;;;;;24.60;45.00;;;;;;5094642;28;1100;-44
2022/03/31 09:08:34;;;;;;;;;;;24.50;45.00;;;;;;5093881;28;1901;-45
2022/03/31 09:11:03;;;;;;;;;;;24.60;44.90;;;;;;5095097;28;893;-46
2022/03/31 09:13:31;;;;;;;;;;;24.60;45.00;;;;;;5094684;28;1047;-43
2022/03/31 09:16:01;;;;;;;;;;;24.60;45.00;;;;;;5094500;28;969;-44
2022/03/31 09:18:29;;;;;;;;;;;24.60;45.00;;;;;;5093386;28;1014;-44
2022/03/31 09:20:59;;;;;;;;;;;24.60;45.20;;;;;;5095134;28;945;-45
2022/03/31 09:23:26;;;;;;;;;;;24.50;45.00;;;;;;5095967;28;1015;-44
2022/03/31 09:25:53;;;;;;;;;;;24.50;45.10;;;;;;5095365;28;1184;-44
2022/03/31 09:28:21;;;;;;;;;;;24.60;45.00;;;;;;5095391;28;1914;-44
2022/03/31 09:30:49;;;;;;;;;;;24.60;45.00;;;;;;5095283;28;977;-46
2022/03/31 09:33:34;;;;;;;;;;;24.50;45.10;;;;;;5095370;28;940;-44
2022/03/31 09:36:04;;;;;;;;;;;24.60;45.00;;;;;;5095536;28;944;-44
2022/03/31 09:38:32;;;;;;;;;;;24.60;44.90;;;;;;5095079;28;933;-44
2022/03/31 09:41:01;;;;;;;;;;;24.60;45.00;;;;;;5095568;28;998;-44
2022/03/31 09:43:28;;;;;;;;;;;24.60;45.00;;;;;;5094870;28;1107;-45
2022/03/31 09:45:55;;;;;;;;;;;24.50;45.10;;;;;;5096547;28;956;-44
2022/03/31 09:48:22;;;;;;;;;;;24.60;45.10;;;;;;5095725;28;1910;-44
2022/03/31 09:50:49;;;;;;;;;;;24.50;45.00;;;;;;5095219;28;940;-45
2022/03/31 09:53:18;;;;;;;;;;;24.50;45.00;;;;;;5095187;28;1100;-44
2022/03/31 09:55:45;;;;;;;;;;;24.50;45.10;;;;;;5095906;28;996;-45
2022/03/31 09:58:14;;;;;;;;;;;24.50;45.10;;;;;;5095361;28;1004;-45
2022/03/31 10:00:41;;;;;;;;;;;24.50;45.10;;;;;;5098270;28;920;-44
2022/03/31 10:03:08;;;;;;;;;;;24.50;45.00;;;;;;5099623;28;1012;-46
2022/03/31 10:05:35;;;;;;;;;;;24.60;45.10;;;;;;5099349;28;853;-45
2022/03/31 10:08:02;;;;;;;;;;;24.60;45.10;;;;;;5099412;28;932;-45
2022/03/31 10:10:32;;;;;;;;;;;24.60;45.00;;;;;;5097758;28;1968;-45
2022/03/31 10:13:01;;;;;;;;;;;24.60;45.00;;;;;;5098999;28;996;-44
2022/03/31 10:15:30;;;;;;;;;;;24.50;45.10;;;;;;5098152;28;996;-45
2022/03/31 10:17:58;;;;;;;;;;;24.50;45.00;;;;;;5098004;28;936;-45
2022/03/31 10:20:25;;;;;;;;;;;24.50;45.00;;;;;;5098873;28;984;-45
2022/03/31 10:25:42;;;;;;;;;;;24.50;45.10;;;;;;5098236;28;767;-46
2022/03/31 10:28:09;;;;;;;;;;;24.50;45.00;;;;;;5098649;28;903;-45
2022/03/31 10:30:36;;;;;;;;;;;24.50;45.20;;;;;;5094567;28;1984;-46
2022/03/31 10:33:04;;;;;;;;;;;24.50;45.20;;;;;;5097307;28;1030;-46
2022/03/31 10:35:32;;;;;;;;;;;24.50;45.10;;;;;;5097649;28;963;-47
2022/03/31 10:37:59;;;;;;;;;;;24.50;45.00;;;;;;5098009;28;881;-45
2022/03/31 10:40:33;;;;;;;;;;;24.50;45.10;;;;;;5098807;28;970;-45
2022/03/31 10:43:02;;;;;;;;;;;24.50;45.10;;;;;;5098290;28;1041;-45
2022/03/31 10:45:36;;;;;;;;;;;24.50;45.10;;;;;;5097994;28;956;-47
2022/03/31 10:48:13;;;;;;;;;;;24.50;45.10;;;;;;5097144;28;944;-45
2022/03/31 10:50:40;;;;;;;;;;;24.50;45.10;;;;;;5098774;28;1893;-47
2022/03/31 10:53:06;;;;;;;;;;;24.50;45.20;;;;;;5095479;28;977;-45
2022/03/31 10:55:35;;;;;;;;;;;24.50;45.30;;;;;;5095202;28;976;-46
2022/03/31 10:58:04;;;;;;;;;;;24.50;45.20;;;;;;5096921;28;908;-46
2022/03/31 11:00:30;;;;;;;;;;;24.50;45.20;;;;;;5098487;28;2086;-45
2022/03/31 11:02:57;;;;;;;;;;;24.50;45.30;;;;;;5096469;28;1012;-45
2022/03/31 11:05:25;;;;;;;;;;;24.50;45.20;;;;;;5097043;28;1012;-45
2022/03/31 11:08:01;;;;;;;;;;;24.50;45.20;;;;;;5095331;28;880;-45
2022/03/31 11:10:28;;;;;;;;;;;24.50;45.20;;;;;;5095722;28;1996;-46
2022/03/31 11:12:55;;;;;;;;;;;24.50;45.10;;;;;;5096345;28;988;-46
2022/03/31 11:15:24;;;;;;;;;;;24.50;45.20;;;;;;5097052;28;1013;-47
2022/03/31 11:17:59;;;;;;;;;;;24.50;45.20;;;;;;5095685;28;1426;-47
2022/03/31 11:20:27;;;;;;;;;;;24.50;45.10;;;;;;5096571;28;1003;-45
2022/03/31 11:22:55;;;;;;;;;;;24.50;45.10;;;;;;5097420;28;977;-47
2022/03/31 11:25:22;;;;;;;;;;;24.50;45.10;;;;;;5097087;28;956;-45
2022/03/31 11:27:50;;;;;;;;;;;24.50;45.20;;;;;;5097418;28;1015;-46
2022/03/31 11:30:18;;;;;;;;;;;24.50;45.20;;;;;;5097730;28;1887;-47
2022/03/31 11:32:48;;;;;;;;;;;24.40;45.20;;;;;;5096586;28;968;-45
2022/03/31 11:35:16;;;;;;;;;;;24.50;45.30;;;;;;5097082;28;1038;-46
2022/03/31 11:37:47;;;;;;;;;;;24.50;45.30;;;;;;5096626;28;1045;-46
2022/03/31 11:40:18;;;;;;;;;;;24.50;45.30;;;;;;5097389;28;932;-46
2022/03/31 11:42:45;;;;;;;;;;;24.50;45.30;;;;;;5096402;28;1085;-46
2022/03/31 11:45:22;;;;;;;;;;;24.50;45.40;;;;;;5096402;28;1028;-46
2022/03/31 11:47:56;;;;;;;;;;;24.50;45.30;;;;;;5096682;28;1423;-46
2022/03/31 11:50:24;;;;;;;;;;;24.50;45.20;;;;;;5096830;28;1989;-48
2022/03/31 11:52:52;;;;;;;;;;;24.50;45.20;;;;;;5096833;28;979;-46
2022/03/31 11:55:20;;;;;;;;;;;24.40;45.20;;;;;;5097195;28;983;-45
2022/03/31 11:57:53;;;;;;;;;;;24.50;45.30;;;;;;5096691;28;947;-46
2022/03/31 12:00:22;;;;;;;;;;;24.50;45.30;;;;;;5096668;28;1042;-46
2022/03/31 12:02:58;;;;;;;;;;;24.50;45.30;;;;;;5088343;28;944;-45
2022/03/31 12:05:25;;;;;;;;;;;24.50;45.30;;;;;;5095632;28;916;-44
2022/03/31 12:07:52;;;;;;;;;;;24.50;45.30;;;;;;5096416;28;968;-45
2022/03/31 12:10:19;;;;;;;;;;;24.50;45.20;;;;;;5095731;28;1984;-46
2022/03/31 12:12:47;;;;;;;;;;;24.50;45.40;;;;;;5095064;28;980;-44
2022/03/31 12:15:19;;;;;;;;;;;24.40;45.40;;;;;;5096548;28;1861;-46
2022/03/31 12:17:57;;;;;;;;;;;24.50;45.20;;;;;;5096193;28;1004;-45
2022/03/31 12:20:24;;;;;;;;;;;24.40;45.20;;;;;;5096266;28;1709;-46
2022/03/31 12:22:51;;;;;;;;;;;24.40;45.30;;;;;;5096082;28;1034;-47
2022/03/31 12:25:26;;;;;;;;;;;24.50;45.30;;;;;;5096474;28;1033;-47
2022/03/31 12:27:53;;;;;;;;;;;24.50;45.30;;;;;;5096747;28;956;-45
2022/03/31 12:30:20;;;;;;;;;;;24.40;45.10;;;;;;5096771;28;1910;-46
2022/03/31 12:32:47;;;;;;;;;;;24.50;45.30;;;;;;5095620;28;1007;-47
2022/03/31 12:35:15;;;;;;;;;;;24.40;45.30;;;;;;5095977;28;967;-44
2022/03/31 12:37:45;;;;;;;;;;;24.50;45.30;;;;;;5095198;28;1013;-45
2022/03/31 12:40:12;;;;;;;;;;;24.50;45.30;;;;;;5095310;28;975;-45
2022/03/31 12:42:50;;;;;;;;;;;24.40;45.20;;;;;;5096105;28;1397;-45
2022/03/31 12:45:16;;;;;;;;;;;24.50;45.20;;;;;;5096072;28;937;-45
2022/03/31 12:47:45;;;;;;;;;;;24.50;45.20;;;;;;5094423;28;1712;-45
2022/03/31 12:50:17;;;;;;;;;;;24.50;45.20;;;;;;5095920;28;1975;-46
2022/03/31 12:52:52;;;;;;;;;;;24.50;45.20;;;;;;5095582;28;947;-44
2022/03/31 12:55:19;;;;;;;;;;;24.50;45.10;;;;;;5095047;28;980;-45
2022/03/31 12:57:54;;;;;;;;;;;24.50;45.10;;;;;;5095647;28;966;-45
2022/03/31 13:00:22;;;;;;;;;;;24.50;45.10;;;;;;5095042;28;1006;-47
2022/03/31 13:02:49;;;;;;;;;;;24.40;45.20;;;;;;5096027;28;924;-45
2022/03/31 13:05:21;;;;;;;;;;;24.50;45.10;;;;;;5094554;28;937;-45
2022/03/31 13:07:48;;;;;;;;;;;24.50;45.10;;;;;;5094655;28;1016;-45
2022/03/31 13:10:15;;;;;;;;;;;24.50;45.20;;;;;;5093720;28;1975;-45
2022/03/31 13:12:42;;;;;;;;;;;24.50;45.10;;;;;;5094749;28;992;-46
2022/03/31 13:15:12;;;;;;;;;;;24.50;45.10;;;;;;5092656;28;952;-45
2022/03/31 13:17:39;;;;;;;;;;;24.50;45.10;;;;;;5091060;28;969;-45
2022/03/31 13:20:07;;;;;;;;;;;24.50;45.10;;;;;;5094029;28;963;-45
2022/03/31 13:22:35;;;;;;;;;;;24.50;45.10;;;;;;5093810;28;1226;-45
2022/03/31 13:25:02;;;;;;;;;;;24.50;45.10;;;;;;5094119;28;1042;-45
2022/03/31 13:27:29;;;;;;;;;;;24.50;45.20;;;;;;5093161;28;960;-46
2022/03/31 13:29:57;;;;;;;;;;;24.50;45.00;;;;;;5093836;28;1996;-45
2022/03/31 13:32:24;;;;;;;;;;;24.50;45.10;;;;;;5092750;28;960;-45
2022/03/31 13:34:50;;;;;;;;;;;24.40;45.10;;;;;;5093856;28;928;-45
2022/03/31 13:37:18;;;;;;;;;;;24.50;45.10;;;;;;5093235;28;1024;-46
2022/03/31 13:39:47;;;;;;;;;;;24.40;45.10;;;;;;5094644;28;1054;-45
2022/03/31 13:42:14;;;;;;;;;;;24.40;45.20;;;;;;5092854;28;1062;-46
2022/03/31 13:44:42;;;;;;;;;;;24.40;45.10;;;;;;5093660;28;1004;-46
2022/03/31 13:47:09;;;;;;;;;;;24.50;45.10;;;;;;5093045;28;959;-44
2022/03/31 13:49:37;;;;;;;;;;;24.40;45.00;;;;;;5092537;28;1914;-45
2022/03/31 13:52:04;;;;;;;;;;;24.40;45.10;;;;;;5093040;28;971;-45
2022/03/31 13:54:34;;;;;;;;;;;24.40;45.20;;;;;;5094049;28;865;-46
2022/03/31 13:57:03;;;;;;;;;;;24.40;45.20;;;;;;5092865;28;1015;-51
2022/03/31 14:02:16;;;;;;;;;;;24.40;45.30;;;;;;5093486;28;978;-45
2022/03/31 14:04:43;;;;;;;;;;;24.40;45.40;;;;;;5093120;28;892;-45
2022/03/31 14:07:10;;;;;;;;;;;24.40;46.40;;;;;;5094368;28;1124;-47
2022/03/31 14:09:37;;;;;;;;;;;24.40;45.20;;;;;;5092533;28;1032;-45
2022/03/31 14:12:09;;;;;;;;;;;24.40;45.10;;;;;;5092102;28;1909;-46
2022/03/31 14:14:35;;;;;;;;;;;24.50;45.10;;;;;;5093231;28;1002;-45
2022/03/31 14:17:02;;;;;;;;;;;24.40;45.10;;;;;;5092687;28;1012;-45
2022/03/31 14:19:33;;;;;;;;;;;24.50;45.00;;;;;;5090651;28;1026;-45
2022/03/31 14:22:01;;;;;;;;;;;24.50;44.90;;;;;;5093503;28;1011;-45
2022/03/31 14:24:28;;;;;;;;;;;24.50;44.90;;;;;;5093029;28;1591;-46
2022/03/31 14:26:55;;;;;;;;;;;24.50;44.80;;;;;;5093396;28;984;-45
2022/03/31 14:29:23;;;;;;;;;;;24.50;44.80;;;;;;5093857;28;1028;-45
2022/03/31 14:31:50;;;;;;;;;;;24.50;44.70;;;;;;5092064;28;1905;-45
2022/03/31 14:34:18;;;;;;;;;;;24.50;44.70;;;;;;5094245;28;877;-45
2022/03/31 14:36:45;;;;;;;;;;;24.40;44.70;;;;;;5094159;28;1528;-45
2022/03/31 14:39:13;;;;;;;;;;;24.50;44.90;;;;;;5092937;28;934;-45
2022/03/31 14:41:41;;;;;;;;;;;24.50;44.70;;;;;;5089153;28;940;-45
2022/03/31 14:44:08;;;;;;;;;;;24.40;44.70;;;;;;5092347;28;1177;-44
2022/03/31 14:46:37;;;;;;;;;;;24.50;44.70;;;;;;5094581;28;991;-44